sensor_id;sensor_type;location;lat;lon;timestamp;pressure;altitude;pressure_sealevel;temperature;humidity
68669;BME280;55652;49.454;7.798;2022-12-18T10:36:04;99739.19;;;19.97;36.35
68669;BME280;55652;49.454;7.798;2022-12-18T10:38:32;99736.44;;;20.04;37.21
68669;BME280;55652;49.454;7.798;2022-12-18T10:43:39;99740.34;;;20.21;36.84
68669;BME280;55652;49.454;7.798;2022-12-18T10:51:06;99765.44;;;20.55;38.66
68669;BME280;55652;49.454;7.798;2022-12-18T10:53:34;99760.34;;;20.65;37.54
68669;BME280;55652;49.454;7.798;2022-12-18T10:56:03;99767.38;;;20.80;39.20
68669;BME280;55652;49.454;7.798;2022-12-18T10:58:30;99770.00;;;20.93;37.99
68669;BME280;55652;49.454;7.798;2022-12-18T11:01:14;99767.19;;;21.06;37.63
68669;BME280;55652;49.454;7.798;2022-12-18T11:03:41;99755.13;;;21.21;38.15
68669;BME280;55652;49.454;7.798;2022-12-18T11:06:13;99748.50;;;21.35;37.86
68669;BME280;55652;49.454;7.798;2022-12-18T11:08:42;99732.53;;;21.45;36.17
68669;BME280;55652;49.454;7.798;2022-12-18T11:11:21;99723.03;;;21.54;36.26
68669;BME280;55652;49.454;7.798;2022-12-18T11:14:05;99722.88;;;21.68;36.79
68669;BME280;55652;49.454;7.798;2022-12-18T11:16:43;99730.28;;;21.79;35.99
68669;BME280;55652;49.454;7.798;2022-12-18T11:19:31;99735.41;;;21.87;36.12
68669;BME280;55652;49.454;7.798;2022-12-18T11:21:59;99725.84;;;21.96;36.31
68669;BME280;55652;49.454;7.798;2022-12-18T11:24:29;99727.22;;;22.06;35.95
68669;BME280;55652;49.454;7.798;2022-12-18T11:27:02;99716.63;;;22.16;37.33
68669;BME280;55652;49.454;7.798;2022-12-18T11:29:37;99720.69;;;22.25;35.84
68669;BME280;55652;49.454;7.798;2022-12-18T11:34:54;99715.19;;;22.43;35.75
68669;BME280;55652;49.454;7.798;2022-12-18T11:37:23;99715.94;;;22.51;35.98
68669;BME280;55652;49.454;7.798;2022-12-18T11:39:59;99724.38;;;22.61;35.84
68669;BME280;55652;49.454;7.798;2022-12-18T11:42:41;99703.88;;;22.70;35.86
68669;BME280;55652;49.454;7.798;2022-12-18T11:50:17;99702.16;;;22.88;35.19
68669;BME280;55652;49.454;7.798;2022-12-18T11:52:43;99700.38;;;22.93;35.54
68669;BME280;55652;49.454;7.798;2022-12-18T12:00:27;99704.66;;;23.13;35.48
68669;BME280;55652;49.454;7.798;2022-12-18T12:08:26;99681.09;;;23.30;35.45
68669;BME280;55652;49.454;7.798;2022-12-18T12:14:07;99689.94;;;23.37;34.87
68669;BME280;55652;49.454;7.798;2022-12-18T12:22:29;99691.59;;;23.50;34.16
68669;BME280;55652;49.454;7.798;2022-12-18T12:38:51;99658.81;;;23.73;34.13
68669;BME280;55652;49.454;7.798;2022-12-18T12:41:32;99650.63;;;23.73;34.05
68669;BME280;55652;49.454;7.798;2022-12-18T12:44:26;99653.97;;;23.76;34.53
68669;BME280;55652;49.454;7.798;2022-12-18T12:47:00;99650.25;;;23.82;34.54
68669;BME280;55652;49.454;7.798;2022-12-18T12:49:32;99657.94;;;23.85;34.33
68669;BME280;55652;49.454;7.798;2022-12-18T12:52:10;99651.44;;;23.86;34.15
68669;BME280;55652;49.454;7.798;2022-12-18T12:54:38;99644.28;;;23.85;34.51
68669;BME280;55652;49.454;7.798;2022-12-18T12:57:19;99642.16;;;23.87;33.95
68669;BME280;55652;49.454;7.798;2022-12-18T13:02:35;99635.38;;;23.89;33.66
68669;BME280;55652;49.454;7.798;2022-12-18T13:07:50;99623.84;;;23.99;33.51
68669;BME280;55652;49.454;7.798;2022-12-18T13:15:32;99615.38;;;24.01;33.74
68669;BME280;55652;49.454;7.798;2022-12-18T13:20:36;99620.16;;;23.93;33.63
68669;BME280;55652;49.454;7.798;2022-12-18T13:25:55;99617.09;;;23.90;33.35
68669;BME280;55652;49.454;7.798;2022-12-18T13:29:08;99608.31;;;23.88;33.39
68669;BME280;55652;49.454;7.798;2022-12-18T13:31:09;99614.94;;;23.92;33.51
68669;BME280;55652;49.454;7.798;2022-12-18T13:33:47;99608.41;;;23.93;33.71
68669;BME280;55652;49.454;7.798;2022-12-18T13:36:36;99611.91;;;23.88;33.79
68669;BME280;55652;49.454;7.798;2022-12-18T13:44:58;99620.66;;;23.90;33.89
68669;BME280;55652;49.454;7.798;2022-12-18T13:47:36;99616.50;;;23.88;33.96
68669;BME280;55652;49.454;7.798;2022-12-18T13:50:31;99604.75;;;23.87;34.52
68669;BME280;55652;49.454;7.798;2022-12-18T13:52:58;99603.44;;;23.90;36.06
68669;BME280;55652;49.454;7.798;2022-12-18T13:55:24;99605.19;;;23.96;35.47
68669;BME280;55652;49.454;7.798;2022-12-18T13:58:03;99599.66;;;23.91;34.70
68669;BME280;55652;49.454;7.798;2022-12-18T14:00:29;99593.59;;;23.89;35.11
68669;BME280;55652;49.454;7.798;2022-12-18T14:02:57;99600.38;;;23.86;34.62
68669;BME280;55652;49.454;7.798;2022-12-18T14:05:24;99606.06;;;23.85;33.92
68669;BME280;55652;49.454;7.798;2022-12-18T14:07:55;99608.69;;;23.80;33.68
68669;BME280;55652;49.454;7.798;2022-12-18T14:10:25;99611.59;;;23.73;33.52
68669;BME280;55652;49.454;7.798;2022-12-18T14:12:51;99615.16;;;23.73;33.57
68669;BME280;55652;49.454;7.798;2022-12-18T14:20:31;99606.47;;;23.77;33.24
68669;BME280;55652;49.454;7.798;2022-12-18T14:22:57;99609.06;;;23.83;33.23
